createdAt,value
2023-01-07T00:00:49.958Z,34.27
2023-01-07T00:03:16.681Z,34.30
2023-01-07T00:05:43.655Z,34.35
2023-01-07T00:08:10.385Z,34.36
2023-01-07T00:10:36.860Z,34.37
2023-01-07T00:13:03.321Z,34.39
2023-01-07T00:15:29.725Z,34.41
2023-01-07T00:17:56.134Z,34.42
2023-01-07T00:20:22.590Z,34.41
2023-01-07T00:22:50.143Z,34.46
2023-01-07T00:25:16.688Z,34.50
2023-01-07T00:27:43.075Z,34.51
2023-01-07T00:30:12.189Z,34.51
2023-01-07T00:32:59.357Z,34.47
2023-01-07T00:35:26.008Z,34.52
2023-01-07T00:37:53.303Z,34.57
2023-01-07T00:40:19.982Z,34.56
2023-01-07T00:42:55.486Z,34.55
2023-01-07T00:45:22.440Z,34.57
2023-01-07T00:47:48.955Z,34.57
2023-01-07T00:50:15.396Z,34.59
2023-01-07T00:55:26.942Z,34.60
2023-01-07T00:57:53.618Z,34.60
2023-01-07T01:00:20.532Z,34.59
2023-01-07T01:02:47.222Z,34.60
2023-01-07T01:05:13.863Z,34.67
2023-01-07T01:07:40.491Z,34.65
2023-01-07T01:10:10.155Z,34.65
2023-01-07T01:12:36.709Z,34.62
2023-01-07T01:15:03.967Z,34.66
2023-01-07T01:17:32.687Z,34.63
2023-01-07T01:19:59.099Z,34.70
2023-01-07T01:22:25.552Z,34.68
2023-01-07T01:24:51.972Z,34.67
2023-01-07T01:27:18.608Z,34.73
2023-01-07T01:29:45.008Z,34.72
2023-01-07T01:32:11.489Z,34.67
2023-01-07T01:34:37.934Z,34.74
2023-01-07T01:37:04.331Z,34.74
2023-01-07T01:39:30.836Z,34.74
2023-01-07T01:41:57.421Z,34.70
2023-01-07T01:44:30.190Z,34.72
2023-01-07T01:46:56.764Z,34.76
2023-01-07T01:49:30.847Z,34.76
2023-01-07T01:51:58.939Z,34.76
2023-01-07T01:54:25.481Z,34.79
2023-01-07T01:56:52.027Z,34.79
2023-01-07T01:59:19.251Z,34.80
2023-01-07T02:01:46.015Z,34.79
2023-01-07T02:04:13.165Z,34.80
2023-01-07T02:06:41.966Z,34.85
2023-01-07T02:09:08.439Z,34.84
2023-01-07T02:11:44.083Z,34.83
2023-01-07T02:14:19.704Z,34.83
2023-01-07T02:16:46.231Z,34.84
2023-01-07T02:19:31.920Z,34.85
2023-01-07T02:22:02.164Z,34.89
2023-01-07T02:24:38.459Z,34.86
2023-01-07T02:27:23.746Z,34.82
2023-01-07T02:29:54.515Z,34.90
2023-01-07T02:32:26.925Z,34.90
2023-01-07T02:34:57.438Z,34.90
2023-01-07T02:37:34.585Z,34.90
2023-01-07T02:40:04.299Z,34.91
2023-01-07T02:42:36.955Z,34.92
2023-01-07T02:45:18.640Z,34.99
2023-01-07T02:47:52.775Z,34.96
2023-01-07T02:50:19.615Z,34.96
2023-01-07T02:52:46.167Z,35.01
2023-01-07T02:55:16.777Z,34.99
2023-01-07T02:58:01.783Z,35.00
2023-01-07T03:00:28.149Z,34.97
2023-01-07T03:03:13.490Z,35.05
2023-01-07T03:05:45.178Z,35.05
2023-01-07T03:08:30.536Z,35.03
2023-01-07T03:10:56.964Z,35.03
2023-01-07T03:13:24.004Z,35.01
2023-01-07T03:15:55.555Z,35.04
2023-01-07T03:18:31.342Z,35.08
2023-01-07T03:20:58.518Z,35.04
2023-01-07T03:23:25.818Z,35.08
2023-01-07T03:25:52.394Z,35.04
2023-01-07T03:28:19.451Z,35.06
2023-01-07T03:30:45.861Z,35.07
2023-01-07T03:33:14.441Z,35.10
2023-01-07T03:35:41.381Z,35.10
2023-01-07T03:38:07.819Z,35.04
2023-01-07T03:40:34.283Z,35.11
2023-01-07T03:43:00.715Z,35.05
2023-01-07T03:45:27.514Z,35.05
2023-01-07T03:47:54.469Z,35.06
2023-01-07T03:50:21.020Z,35.03
2023-01-07T03:52:48.705Z,35.06
2023-01-07T03:55:15.228Z,35.05
2023-01-07T03:57:41.724Z,35.07
2023-01-07T04:00:09.044Z,34.97
2023-01-07T04:02:35.547Z,34.46
2023-01-07T04:05:01.978Z,33.75
2023-01-07T04:07:28.408Z,33.17
2023-01-07T04:09:54.942Z,32.16
2023-01-07T04:12:21.539Z,30.21
2023-01-07T04:14:48.018Z,28.08
2023-01-07T04:17:14.448Z,25.94
2023-01-07T04:19:40.860Z,24.14
2023-01-07T04:22:07.561Z,22.79
2023-01-07T04:24:34.146Z,21.82
2023-01-07T04:27:02.695Z,21.34
2023-01-07T04:29:29.259Z,21.10
2023-01-07T04:31:55.709Z,20.87
2023-01-07T04:34:22.108Z,20.69
2023-01-07T04:36:48.585Z,20.53
2023-01-07T04:39:15.445Z,20.35
2023-01-07T04:41:42.044Z,20.23
2023-01-07T04:44:08.494Z,20.11
2023-01-07T04:46:35.005Z,19.99
2023-01-07T04:49:01.469Z,19.91
2023-01-07T04:51:27.894Z,19.83
2023-01-07T04:53:54.423Z,19.75
2023-01-07T04:56:20.959Z,19.69
2023-01-07T04:58:47.827Z,19.65
2023-01-07T05:01:14.486Z,19.58
2023-01-07T05:03:40.995Z,19.56
2023-01-07T05:06:09.480Z,19.51
2023-01-07T05:08:35.951Z,19.47
2023-01-07T05:11:03.952Z,19.42
2023-01-07T05:13:31.863Z,19.39
2023-01-07T05:15:58.578Z,19.35
2023-01-07T05:18:25.011Z,19.34
2023-01-07T05:20:51.555Z,19.32
2023-01-07T05:23:17.974Z,19.29
2023-01-07T05:25:44.447Z,19.26
2023-01-07T05:28:12.069Z,19.24
2023-01-07T05:30:39.536Z,19.20
2023-01-07T05:33:07.340Z,19.19
2023-01-07T05:35:34.307Z,19.17
2023-01-07T05:38:00.744Z,19.15
2023-01-07T05:40:27.197Z,19.16
2023-01-07T05:42:53.753Z,19.17
2023-01-07T05:45:21.908Z,19.15
2023-01-07T05:47:48.656Z,19.16
2023-01-07T05:50:15.289Z,19.15
2023-01-07T05:52:41.712Z,19.15
2023-01-07T05:55:08.728Z,19.14
2023-01-07T05:57:35.150Z,19.13
2023-01-07T06:00:01.643Z,19.15
2023-01-07T06:02:28.042Z,19.13
2023-01-07T06:04:54.516Z,19.14
2023-01-07T06:07:21.041Z,19.12
2023-01-07T06:09:50.516Z,19.12
2023-01-07T06:12:16.961Z,19.10
2023-01-07T06:14:43.420Z,19.10
2023-01-07T06:17:09.806Z,19.09
2023-01-07T06:19:36.301Z,19.08
2023-01-07T06:22:02.839Z,19.06
2023-01-07T06:24:29.372Z,19.04
2023-01-07T06:26:58.546Z,19.02
2023-01-07T06:29:24.988Z,19.01
2023-01-07T06:31:51.403Z,18.96
2023-01-07T06:34:17.819Z,18.95
2023-01-07T06:36:44.285Z,18.94
2023-01-07T06:39:11.336Z,18.93
2023-01-07T06:41:37.749Z,18.91
2023-01-07T06:44:04.198Z,18.87
2023-01-07T06:46:30.782Z,18.86
2023-01-07T06:48:59.866Z,18.84
2023-01-07T06:51:26.317Z,18.81
2023-01-07T06:53:52.773Z,18.78
2023-01-07T06:56:19.183Z,18.76
2023-01-07T06:58:45.743Z,18.73
2023-01-07T07:01:12.228Z,18.70
2023-01-07T07:03:38.901Z,18.69
2023-01-07T07:06:05.533Z,18.67
2023-01-07T07:08:31.994Z,18.65
2023-01-07T07:10:58.432Z,18.65
2023-01-07T07:13:24.841Z,18.64
2023-01-07T07:15:51.323Z,18.63
2023-01-07T07:18:17.909Z,18.63
2023-01-07T07:20:45.820Z,18.62
2023-01-07T07:23:12.314Z,18.62
2023-01-07T07:25:38.734Z,18.60
2023-01-07T07:28:05.227Z,18.58
2023-01-07T07:30:45.561Z,18.60
2023-01-07T07:33:15.241Z,18.61
2023-01-07T07:35:41.896Z,18.62
2023-01-07T07:38:08.289Z,18.61
2023-01-07T07:40:34.732Z,18.60
2023-01-07T07:43:10.694Z,18.60
2023-01-07T07:45:39.592Z,18.60
2023-01-07T07:48:07.330Z,18.62
2023-01-07T07:50:33.914Z,18.61
2023-01-07T07:53:00.329Z,18.61
2023-01-07T07:55:26.838Z,18.61
2023-01-07T07:57:56.503Z,18.60
2023-01-07T08:00:22.999Z,18.59
2023-01-07T08:02:49.442Z,18.58
2023-01-07T08:05:16.136Z,18.56
2023-01-07T08:07:45.410Z,18.55
2023-01-07T08:10:11.849Z,18.54
2023-01-07T08:12:38.705Z,18.53
2023-01-07T08:15:05.994Z,18.52
2023-01-07T08:17:32.577Z,18.52
2023-01-07T08:19:59.103Z,18.52
2023-01-07T08:22:25.532Z,18.52
2023-01-07T08:24:51.928Z,18.52
2023-01-07T08:27:18.354Z,18.52
2023-01-07T08:29:45.062Z,18.53
2023-01-07T08:32:11.588Z,18.54
2023-01-07T08:34:37.991Z,18.53
2023-01-07T08:37:04.647Z,18.54
2023-01-07T08:39:31.036Z,18.53
2023-01-07T08:41:57.600Z,18.57
2023-01-07T08:44:23.988Z,18.58
2023-01-07T08:46:50.617Z,18.59
2023-01-07T08:49:19.326Z,18.61
2023-01-07T08:51:48.086Z,18.64
2023-01-07T08:54:15.537Z,18.63
2023-01-07T08:56:42.017Z,18.65
2023-01-07T08:59:08.422Z,18.64
2023-01-07T09:01:35.344Z,18.73
2023-01-07T09:04:01.800Z,19.05
2023-01-07T09:06:28.214Z,19.38
2023-01-07T09:08:54.621Z,19.72
2023-01-07T09:11:21.079Z,20.30
2023-01-07T09:13:47.467Z,20.97
2023-01-07T09:16:14.121Z,21.54
2023-01-07T09:18:40.596Z,22.20
2023-01-07T09:21:07.292Z,22.61
2023-01-07T09:23:33.830Z,22.93
2023-01-07T09:26:00.313Z,23.09
2023-01-07T09:28:26.799Z,23.33
2023-01-07T09:30:54.850Z,23.38
2023-01-07T09:33:22.983Z,23.48
2023-01-07T09:35:49.404Z,23.40
2023-01-07T09:38:15.861Z,23.25
2023-01-07T09:40:42.852Z,22.60
2023-01-07T09:43:12.114Z,22.41
2023-01-07T09:45:45.914Z,22.33
2023-01-07T09:48:19.034Z,22.23
2023-01-07T09:50:48.226Z,22.07
2023-01-07T09:53:34.881Z,22.06
2023-01-07T09:56:11.614Z,21.88
2023-01-07T09:58:40.271Z,21.46
2023-01-07T10:01:06.778Z,21.44
2023-01-07T10:03:33.236Z,21.69
2023-01-07T10:06:29.316Z,21.59
2023-01-07T10:09:13.529Z,21.62
2023-01-07T10:11:44.218Z,21.43
2023-01-07T10:14:10.650Z,21.35
2023-01-07T10:16:52.334Z,20.98
2023-01-07T10:19:27.316Z,20.85
2023-01-07T10:21:55.322Z,20.64
2023-01-07T10:24:41.985Z,20.61
2023-01-07T10:27:10.254Z,20.57
2023-01-07T10:29:40.982Z,20.56
2023-01-07T10:32:14.014Z,20.58
2023-01-07T10:34:43.986Z,20.62
2023-01-07T10:37:16.765Z,20.67
2023-01-07T10:39:43.127Z,20.74
2023-01-07T10:42:15.894Z,20.78
2023-01-07T10:44:52.887Z,20.86
2023-01-07T10:47:19.263Z,20.90
2023-01-07T10:49:54.815Z,20.98
2023-01-07T10:52:33.487Z,21.06
2023-01-07T10:55:05.511Z,21.23
2023-01-07T10:57:32.043Z,21.47
2023-01-07T10:59:59.497Z,21.72
2023-01-07T11:02:27.556Z,21.95
2023-01-07T11:04:55.031Z,22.20
2023-01-07T11:07:43.831Z,22.40
2023-01-07T11:10:17.157Z,22.59
2023-01-07T11:12:47.465Z,22.78
2023-01-07T11:15:19.953Z,22.90
2023-01-07T11:17:50.860Z,23.06
2023-01-07T11:20:37.558Z,23.16
2023-01-07T11:23:17.172Z,23.27
2023-01-07T11:25:45.675Z,23.35
2023-01-07T11:28:18.575Z,23.41
2023-01-07T11:30:44.987Z,23.46
2023-01-07T11:33:22.190Z,23.55
2023-01-07T11:35:52.426Z,23.58
2023-01-07T11:38:32.160Z,23.68
2023-01-07T11:40:59.941Z,23.77
2023-01-07T11:43:39.471Z,23.89
2023-01-07T11:46:19.498Z,23.91
2023-01-07T11:48:49.905Z,23.96
2023-01-07T11:51:16.293Z,24.04
2023-01-07T11:53:48.875Z,24.13
2023-01-07T11:56:21.312Z,24.24
2023-01-07T11:58:51.617Z,24.35
2023-01-07T12:01:18.998Z,24.50
2023-01-07T12:03:51.569Z,24.65
2023-01-07T12:06:23.253Z,24.83
2023-01-07T12:08:50.872Z,25.02
2023-01-07T12:11:17.349Z,25.28
2023-01-07T12:13:48.080Z,25.60
2023-01-07T12:16:14.530Z,25.79
2023-01-07T12:18:58.487Z,25.97
2023-01-07T12:21:34.961Z,26.15
2023-01-07T12:24:10.662Z,26.29
2023-01-07T12:26:40.162Z,26.42
2023-01-07T12:29:06.593Z,26.53
2023-01-07T12:31:52.326Z,26.65
2023-01-07T12:34:21.696Z,26.77
2023-01-07T12:36:49.934Z,26.93
2023-01-07T12:39:18.421Z,27.03
2023-01-07T12:41:45.288Z,27.24
2023-01-07T12:44:18.862Z,27.20
2023-01-07T12:46:51.852Z,27.31
2023-01-07T12:49:21.157Z,27.40
2023-01-07T12:51:52.093Z,27.50
2023-01-07T12:54:18.545Z,27.66
2023-01-07T12:56:55.617Z,27.80
2023-01-07T12:59:46.850Z,28.01
2023-01-07T13:02:25.236Z,28.25
2023-01-07T13:05:04.775Z,28.29
2023-01-07T13:07:37.417Z,28.37
2023-01-07T13:10:07.212Z,28.46
2023-01-07T13:12:43.542Z,28.61
2023-01-07T13:15:10.102Z,28.71
2023-01-07T13:17:36.520Z,28.86
2023-01-07T13:20:04.861Z,28.95
2023-01-07T13:22:36.060Z,29.09
2023-01-07T13:25:14.696Z,29.26
2023-01-07T13:27:53.499Z,29.41
2023-01-07T13:30:39.096Z,29.54
2023-01-07T13:33:09.767Z,29.73
2023-01-07T13:35:52.198Z,29.91
2023-01-07T13:38:48.009Z,30.09
2023-01-07T13:41:34.161Z,30.30
2023-01-07T13:44:12.840Z,30.53
2023-01-07T13:46:40.791Z,30.69
2023-01-07T13:49:16.701Z,30.80
2023-01-07T13:51:43.101Z,30.94
2023-01-07T13:54:12.336Z,31.01
2023-01-07T13:56:38.957Z,31.14
2023-01-07T13:59:23.635Z,31.26
2023-01-07T14:02:09.032Z,31.38
2023-01-07T14:04:36.859Z,31.53
2023-01-07T14:07:03.352Z,31.67
2023-01-07T14:09:33.442Z,31.72
2023-01-07T14:12:18.549Z,31.81
2023-01-07T14:14:58.048Z,31.92
2023-01-07T14:17:24.434Z,32.01
2023-01-07T14:19:58.674Z,32.08
2023-01-07T14:22:37.124Z,32.21
2023-01-07T14:25:12.854Z,32.28
2023-01-07T14:27:51.683Z,32.34
2023-01-07T14:30:28.875Z,32.43
2023-01-07T14:32:56.252Z,32.51
2023-01-07T14:35:24.254Z,32.60
2023-01-07T14:37:50.675Z,32.68
2023-01-07T14:40:26.248Z,32.73
2023-01-07T14:43:02.600Z,32.79
2023-01-07T14:45:49.267Z,32.89
2023-01-07T14:48:15.609Z,32.95
2023-01-07T14:50:56.963Z,33.04
2023-01-07T14:53:23.369Z,33.13
2023-01-07T14:55:51.138Z,33.17
2023-01-07T14:58:23.813Z,33.27
2023-01-07T15:01:23.147Z,33.34
2023-01-07T15:03:52.875Z,33.39
2023-01-07T15:06:28.457Z,33.49
2023-01-07T15:09:16.564Z,33.54
2023-01-07T15:12:04.947Z,33.61
2023-01-07T15:14:50.260Z,33.68
2023-01-07T15:17:17.073Z,33.72
2023-01-07T15:19:43.628Z,33.82
2023-01-07T15:22:17.185Z,33.86
2023-01-07T15:24:46.426Z,33.89
2023-01-07T15:27:33.693Z,33.98
2023-01-07T15:30:00.721Z,34.03
2023-01-07T15:32:32.662Z,34.14
2023-01-07T15:34:59.085Z,34.19
2023-01-07T15:37:25.526Z,34.23
2023-01-07T15:39:55.862Z,34.30
2023-01-07T15:42:22.955Z,34.35
2023-01-07T15:44:50.709Z,34.41
2023-01-07T15:47:30.770Z,34.43
2023-01-07T15:49:57.214Z,34.46
2023-01-07T15:52:25.423Z,34.52
2023-01-07T15:54:51.816Z,34.59
2023-01-07T15:57:28.624Z,34.65
2023-01-07T15:59:55.094Z,34.67
2023-01-07T16:02:25.180Z,34.71
2023-01-07T16:04:52.450Z,34.74
2023-01-07T16:07:23.396Z,34.78
2023-01-07T16:09:50.093Z,34.83
2023-01-07T16:12:20.475Z,34.82
2023-01-07T16:14:46.867Z,34.93
2023-01-07T16:17:14.361Z,34.97
2023-01-07T16:19:40.835Z,34.96
2023-01-07T16:22:07.328Z,34.96
2023-01-07T16:24:33.939Z,35.01
2023-01-07T16:27:04.807Z,35.05
2023-01-07T16:29:32.991Z,35.08
2023-01-07T16:31:59.408Z,35.11
2023-01-07T16:34:25.897Z,35.14
2023-01-07T16:36:55.815Z,35.15
2023-01-07T16:39:25.993Z,35.18
2023-01-07T16:42:12.419Z,35.21
2023-01-07T16:44:45.067Z,35.21
2023-01-07T16:47:15.536Z,35.24
2023-01-07T16:49:41.948Z,35.25
2023-01-07T16:52:15.199Z,35.27
2023-01-07T16:54:43.441Z,35.28
2023-01-07T16:57:12.938Z,35.33
2023-01-07T16:59:42.975Z,35.33
2023-01-07T17:02:12.605Z,35.35
2023-01-07T17:04:39.029Z,35.38
2023-01-07T17:07:05.506Z,35.41
2023-01-07T17:09:34.367Z,35.39
2023-01-07T17:12:00.969Z,35.42
2023-01-07T17:14:33.664Z,35.41
2023-01-07T17:17:00.593Z,35.47
2023-01-07T17:19:27.744Z,35.47
2023-01-07T17:21:54.634Z,35.50
2023-01-07T17:24:30.167Z,35.52
2023-01-07T17:26:57.360Z,35.55
2023-01-07T17:29:24.568Z,35.58
2023-01-07T17:31:51.046Z,35.60
2023-01-07T17:34:18.169Z,35.62
2023-01-07T17:36:44.667Z,35.66
2023-01-07T17:39:11.414Z,35.67
2023-01-07T17:41:56.666Z,35.68
2023-01-07T17:44:23.152Z,35.63
2023-01-07T17:46:49.570Z,35.69
2023-01-07T17:49:16.029Z,35.69
2023-01-07T17:51:43.391Z,35.74
2023-01-07T17:54:14.106Z,35.73
2023-01-07T17:56:40.656Z,35.74
2023-01-07T17:59:09.233Z,35.78
2023-01-07T18:01:35.823Z,35.79
2023-01-07T18:04:02.459Z,35.79
2023-01-07T18:06:31.059Z,35.80
2023-01-07T18:08:57.551Z,35.82
2023-01-07T18:11:43.307Z,35.82
2023-01-07T18:14:10.135Z,35.85
2023-01-07T18:16:36.602Z,35.85
2023-01-07T18:19:03.049Z,35.88
2023-01-07T18:21:29.559Z,35.94
2023-01-07T18:23:55.953Z,35.95
2023-01-07T18:26:22.430Z,35.93
2023-01-07T18:28:48.885Z,35.96
2023-01-07T18:31:15.587Z,35.96
2023-01-07T18:33:42.041Z,35.94
2023-01-07T18:36:09.474Z,36.02
2023-01-07T18:38:35.992Z,35.97
2023-01-07T18:41:04.768Z,36.03
2023-01-07T18:43:31.190Z,36.05
2023-01-07T18:45:57.658Z,36.04
2023-01-07T18:48:24.285Z,36.06
2023-01-07T18:50:50.749Z,36.07
2023-01-07T18:53:17.496Z,36.07
2023-01-07T18:55:44.343Z,36.09
2023-01-07T18:58:12.199Z,36.09
2023-01-07T19:00:38.711Z,36.08
2023-01-07T19:03:05.177Z,36.10
2023-01-07T19:05:31.782Z,36.12
2023-01-07T19:07:58.203Z,36.11
2023-01-07T19:10:24.952Z,36.13
2023-01-07T19:12:51.654Z,36.12
2023-01-07T19:15:18.228Z,36.11
2023-01-07T19:17:44.681Z,36.11
2023-01-07T19:20:12.469Z,36.17
2023-01-07T19:22:38.907Z,36.15
2023-01-07T19:25:05.603Z,36.15
2023-01-07T19:27:32.006Z,36.18
2023-01-07T19:29:58.548Z,36.13
2023-01-07T19:32:24.985Z,36.17
2023-01-07T19:34:52.975Z,36.14
2023-01-07T19:37:19.451Z,36.21
2023-01-07T19:39:45.925Z,36.22
2023-01-07T19:42:12.798Z,36.19
2023-01-07T19:44:41.134Z,36.27
2023-01-07T19:47:07.599Z,36.22
2023-01-07T19:49:34.040Z,36.24
2023-01-07T19:52:00.609Z,36.23
2023-01-07T19:54:27.002Z,36.32
2023-01-07T19:56:53.616Z,36.26
2023-01-07T19:59:20.043Z,36.24
2023-01-07T20:01:46.708Z,36.21
2023-01-07T20:04:13.215Z,36.27
2023-01-07T20:06:39.726Z,36.27
2023-01-07T20:09:10.782Z,36.25
2023-01-07T20:11:38.465Z,36.23
2023-01-07T20:14:04.885Z,36.27
2023-01-07T20:16:31.432Z,36.29
2023-01-07T20:18:57.921Z,36.28
2023-01-07T20:21:25.504Z,36.29
2023-01-07T20:23:51.928Z,36.27
2023-01-07T20:26:19.158Z,36.26
2023-01-07T20:28:45.705Z,36.27
2023-01-07T20:31:13.565Z,36.31
2023-01-07T20:33:40.266Z,36.35
2023-01-07T20:36:07.961Z,36.30
2023-01-07T20:38:36.577Z,36.32
2023-01-07T20:41:06.390Z,36.29
2023-01-07T20:43:33.130Z,36.31
2023-01-07T20:46:00.104Z,36.32
2023-01-07T20:48:26.825Z,36.30
2023-01-07T20:50:53.647Z,36.33
2023-01-07T20:53:20.140Z,36.31
2023-01-07T20:55:46.631Z,36.40
2023-01-07T20:58:13.173Z,36.26
2023-01-07T21:00:41.048Z,36.37
2023-01-07T21:03:08.326Z,36.36
2023-01-07T21:05:34.822Z,36.32
2023-01-07T21:08:01.247Z,36.31
2023-01-07T21:10:27.692Z,36.34
2023-01-07T21:12:54.094Z,36.31
2023-01-07T21:15:20.594Z,36.28
2023-01-07T21:17:47.055Z,36.29
2023-01-07T21:20:14.124Z,36.26
2023-01-07T21:22:40.857Z,36.26
2023-01-07T21:25:10.157Z,36.24
2023-01-07T21:27:39.681Z,36.24
2023-01-07T21:30:06.494Z,36.25
2023-01-07T21:32:33.539Z,36.29
2023-01-07T21:35:00.001Z,36.29
2023-01-07T21:37:28.452Z,36.28
2023-01-07T21:39:55.763Z,36.32
2023-01-07T21:42:22.143Z,36.23
2023-01-07T21:44:48.636Z,36.30
2023-01-07T21:47:15.055Z,36.28
2023-01-07T21:49:41.740Z,36.26
2023-01-07T21:52:08.125Z,36.33
2023-01-07T21:54:34.675Z,36.35
2023-01-07T21:57:01.066Z,36.21
2023-01-07T21:59:29.931Z,36.21
2023-01-07T22:01:56.525Z,36.20
2023-01-07T22:04:23.101Z,36.16
2023-01-07T22:06:49.644Z,36.20
2023-01-07T22:09:16.193Z,36.18
2023-01-07T22:11:43.025Z,36.26
2023-01-07T22:14:13.234Z,36.24
2023-01-07T22:16:39.784Z,36.25
2023-01-07T22:19:06.281Z,36.23
2023-01-07T22:21:32.723Z,36.24
2023-01-07T22:23:59.266Z,36.29
2023-01-07T22:26:25.707Z,36.30
2023-01-07T22:28:56.610Z,36.27
2023-01-07T22:31:24.288Z,36.30
2023-01-07T22:33:50.847Z,36.18
2023-01-07T22:36:18.664Z,36.21
2023-01-07T22:38:45.085Z,36.28
2023-01-07T22:41:11.584Z,36.26
2023-01-07T22:43:40.608Z,36.29
2023-01-07T22:46:11.753Z,36.26
2023-01-07T22:48:38.272Z,36.21
2023-01-07T22:51:15.233Z,36.27
2023-01-07T22:53:41.750Z,36.28
2023-01-07T22:56:08.280Z,36.28
2023-01-07T22:58:34.717Z,36.26
2023-01-07T23:01:04.213Z,36.29
2023-01-07T23:03:30.761Z,36.37
2023-01-07T23:05:57.243Z,36.27
2023-01-07T23:08:23.750Z,36.33
2023-01-07T23:10:50.141Z,36.29
2023-01-07T23:13:16.528Z,36.32
2023-01-07T23:15:42.965Z,36.34
2023-01-07T23:18:09.829Z,36.27
2023-01-07T23:20:39.881Z,36.32
2023-01-07T23:23:06.305Z,36.43
2023-01-07T23:25:32.795Z,36.38
2023-01-07T23:27:59.246Z,36.45
2023-01-07T23:30:25.739Z,36.54
2023-01-07T23:32:52.161Z,36.46
2023-01-07T23:35:18.589Z,36.56
2023-01-07T23:37:44.982Z,36.52
2023-01-07T23:40:11.675Z,36.56
2023-01-07T23:42:38.226Z,36.50
2023-01-07T23:45:07.259Z,36.48
2023-01-07T23:47:35.930Z,36.57
2023-01-07T23:50:02.415Z,36.44
2023-01-07T23:52:29.146Z,36.47
2023-01-07T23:54:56.536Z,36.49
2023-01-07T23:57:23.098Z,36.47
2023-01-07T23:59:49.484Z,36.51
